createdAt,value
2023-03-06T00:02:01.686Z,-5.08
2023-03-06T00:04:13.272Z,-5.01
2023-03-06T00:06:17.991Z,-5.04
2023-03-06T00:08:20.034Z,-5.07
2023-03-06T00:10:25.915Z,-5.08
2023-03-06T00:12:27.846Z,-5.02
2023-03-06T00:14:36.892Z,-5.01
2023-03-06T00:16:39.059Z,-4.97
2023-03-06T00:18:44.238Z,-4.86
2023-03-06T00:20:48.228Z,-4.84
2023-03-06T00:22:51.646Z,-4.78
2023-03-06T00:24:54.255Z,-4.71
2023-03-06T00:26:56.163Z,-4.63
2023-03-06T00:28:58.144Z,-4.59
2023-03-06T00:31:00.148Z,-4.85
2023-03-06T00:33:02.177Z,-4.69
2023-03-06T00:35:04.507Z,-4.81
2023-03-06T00:37:08.421Z,-4.69
2023-03-06T00:39:11.439Z,-4.82
2023-03-06T00:41:13.956Z,-4.75
2023-03-06T00:43:19.014Z,-4.81
2023-03-06T00:45:20.964Z,-4.91
2023-03-06T00:47:22.988Z,-4.83
2023-03-06T00:49:27.042Z,-4.99
2023-03-06T00:51:31.204Z,-4.79
2023-03-06T00:53:35.116Z,-4.87
2023-03-06T00:55:37.987Z,-4.89
2023-03-06T00:57:41.158Z,-4.86
2023-03-06T00:59:43.329Z,-4.91
2023-03-06T01:01:46.496Z,-4.69
2023-03-06T01:03:48.392Z,-4.85
2023-03-06T01:05:50.334Z,-4.84
2023-03-06T01:07:56.209Z,-4.79
2023-03-06T01:09:58.097Z,-4.54
2023-03-06T01:11:59.982Z,-4.62
2023-03-06T01:14:02.060Z,-4.60
2023-03-06T01:16:12.648Z,-4.60
2023-03-06T01:18:17.754Z,-4.49
2023-03-06T01:20:19.777Z,-4.66
2023-03-06T01:22:21.720Z,-4.53
2023-03-06T01:24:26.850Z,-4.57
2023-03-06T01:26:31.889Z,-4.41
2023-03-06T01:28:37.600Z,-4.46
2023-03-06T01:30:40.516Z,-4.48
2023-03-06T01:32:42.404Z,-4.44
2023-03-06T01:34:44.326Z,-4.44
2023-03-06T01:36:47.956Z,-4.50
2023-03-06T01:38:50.939Z,-4.51
2023-03-06T01:40:52.863Z,-4.55
2023-03-06T01:42:54.725Z,-4.51
2023-03-06T01:45:28.794Z,-4.52
2023-03-06T01:47:31.015Z,-4.54
2023-03-06T01:49:39.520Z,-4.59
2023-03-06T01:51:50.088Z,-4.60
2023-03-06T01:53:54.325Z,-4.58
2023-03-06T01:55:56.235Z,-4.71
2023-03-06T01:58:05.426Z,-4.84
2023-03-06T02:00:13.462Z,-4.81
2023-03-06T02:02:15.872Z,-4.85
2023-03-06T02:04:18.482Z,-4.83
2023-03-06T02:06:22.057Z,-4.82
2023-03-06T02:08:24.845Z,-4.95
2023-03-06T02:10:27.167Z,-4.88
2023-03-06T02:12:29.162Z,-4.76
2023-03-06T02:14:34.033Z,-4.84
2023-03-06T02:16:36.071Z,-4.81
2023-03-06T02:18:42.714Z,-4.93
2023-03-06T02:20:50.481Z,-5.11
2023-03-06T02:23:10.577Z,-4.97
2023-03-06T02:25:51.121Z,-4.99
2023-03-06T02:27:53.253Z,-5.19
2023-03-06T02:29:56.254Z,-5.21
2023-03-06T02:31:59.426Z,-5.15
2023-03-06T02:34:14.473Z,-5.26
2023-03-06T02:36:22.464Z,-5.15
2023-03-06T02:38:48.073Z,-5.25
2023-03-06T02:40:52.616Z,-5.17
2023-03-06T02:43:00.545Z,-5.14
2023-03-06T02:45:08.046Z,-5.25
2023-03-06T02:47:10.213Z,-5.27
2023-03-06T02:49:13.137Z,-5.21
2023-03-06T02:51:15.076Z,-5.30
2023-03-06T02:53:19.373Z,-5.36
2023-03-06T02:55:24.694Z,-5.38
2023-03-06T02:57:27.672Z,-5.39
2023-03-06T02:59:32.565Z,-5.37
2023-03-06T03:01:34.491Z,-5.30
2023-03-06T03:03:37.569Z,-5.24
2023-03-06T03:05:40.482Z,-5.25
2023-03-06T03:07:43.473Z,-5.25
2023-03-06T03:09:51.335Z,-5.34
2023-03-06T03:12:01.166Z,-5.36
2023-03-06T03:14:03.094Z,-5.33
2023-03-06T03:16:09.961Z,-5.33
2023-03-06T03:18:12.425Z,-5.41
2023-03-06T03:20:19.274Z,-5.40
2023-03-06T03:22:21.185Z,-5.45
2023-03-06T03:24:24.764Z,-5.20
2023-03-06T03:26:26.685Z,-5.24
2023-03-06T03:28:30.647Z,-5.37
2023-03-06T03:30:33.696Z,-5.40
2023-03-06T03:32:35.778Z,-5.46
2023-03-06T03:34:38.746Z,-5.61
2023-03-06T03:36:40.761Z,-5.52
2023-03-06T03:38:46.639Z,-5.46
2023-03-06T03:40:50.558Z,-5.61
2023-03-06T03:42:54.454Z,-5.62
2023-03-06T03:44:57.302Z,-5.62
2023-03-06T03:46:59.193Z,-5.65
2023-03-06T03:49:02.185Z,-5.50
2023-03-06T03:51:13.398Z,-5.57
2023-03-06T03:53:17.347Z,-5.42
2023-03-06T03:55:21.316Z,-5.53
2023-03-06T03:57:24.292Z,-5.31
2023-03-06T03:59:29.379Z,-5.46
2023-03-06T04:01:39.539Z,-5.52
2023-03-06T04:03:42.823Z,-5.62
2023-03-06T04:05:45.730Z,-5.57
2023-03-06T04:07:47.772Z,-5.62
2023-03-06T04:09:49.666Z,-5.64
2023-03-06T04:11:51.645Z,-5.63
2023-03-06T04:13:55.523Z,-5.73
2023-03-06T04:15:57.586Z,-5.72
2023-03-06T04:18:01.612Z,-5.75
2023-03-06T04:20:05.257Z,-5.75
2023-03-06T04:22:07.195Z,-5.76
2023-03-06T04:24:11.239Z,-5.84
2023-03-06T04:26:13.213Z,-5.87
2023-03-06T04:28:15.596Z,-6.01
2023-03-06T04:30:17.553Z,-6.03
2023-03-06T04:32:21.392Z,-6.18
2023-03-06T04:34:23.674Z,-6.25
2023-03-06T04:36:29.717Z,-6.18
2023-03-06T04:38:31.744Z,-6.25
2023-03-06T04:40:36.198Z,-6.23
2023-03-06T04:42:38.406Z,-6.40
2023-03-06T04:44:41.409Z,-6.48
2023-03-06T04:46:43.363Z,-6.61
2023-03-06T04:48:45.497Z,-6.57
2023-03-06T04:50:47.564Z,-6.70
2023-03-06T04:52:49.651Z,-6.72
2023-03-06T04:54:51.674Z,-6.94
2023-03-06T04:56:57.732Z,-6.77
2023-03-06T04:58:59.699Z,-6.76
2023-03-06T05:01:16.565Z,-6.86
2023-03-06T05:03:18.479Z,-7.01
2023-03-06T05:05:20.425Z,-6.88
2023-03-06T05:07:22.465Z,-6.98
2023-03-06T05:09:31.084Z,-7.05
2023-03-06T05:11:33.050Z,-7.11
2023-03-06T05:13:34.976Z,-7.05
2023-03-06T05:15:42.293Z,-6.96
2023-03-06T05:17:44.549Z,-7.20
2023-03-06T05:19:46.446Z,-7.14
2023-03-06T05:21:48.665Z,-7.31
2023-03-06T05:23:50.704Z,-7.12
2023-03-06T05:25:53.723Z,-7.13
2023-03-06T05:27:55.730Z,-7.13
2023-03-06T05:29:58.751Z,-7.00
2023-03-06T05:32:05.199Z,-7.08
2023-03-06T05:34:08.206Z,-7.11
2023-03-06T05:36:10.563Z,-7.32
2023-03-06T05:38:12.561Z,-7.40
2023-03-06T05:40:17.443Z,-7.40
2023-03-06T05:42:20.778Z,-7.20
2023-03-06T05:44:24.173Z,-6.90
2023-03-06T05:46:26.347Z,-6.56
2023-03-06T05:48:35.381Z,-6.32
2023-03-06T05:50:45.214Z,-6.00
2023-03-06T05:52:47.123Z,-5.69
2023-03-06T05:54:57.173Z,-5.47
2023-03-06T05:57:05.912Z,-5.32
2023-03-06T05:59:07.882Z,-5.21
2023-03-06T06:01:18.525Z,-5.04
2023-03-06T06:03:22.745Z,-4.88
2023-03-06T06:05:48.198Z,-4.73
2023-03-06T06:07:56.073Z,-4.69
2023-03-06T06:09:58.097Z,-4.39
2023-03-06T06:12:03.958Z,-4.16
2023-03-06T06:14:07.016Z,-4.01
2023-03-06T06:16:19.657Z,-3.77
2023-03-06T06:18:22.716Z,-3.74
2023-03-06T06:20:25.783Z,-3.55
2023-03-06T06:22:27.766Z,-3.49
2023-03-06T06:24:33.691Z,-3.41
2023-03-06T06:26:37.679Z,-3.17
2023-03-06T06:28:39.805Z,-3.12
2023-03-06T06:30:47.516Z,-2.98
2023-03-06T06:32:49.537Z,-2.96
2023-03-06T06:34:52.542Z,-2.89
2023-03-06T06:36:55.757Z,-2.70
2023-03-06T06:39:00.662Z,-2.67
2023-03-06T06:41:33.481Z,-2.36
2023-03-06T06:43:26.444Z,-2.56
2023-03-06T06:45:28.684Z,-2.49
2023-03-06T06:47:30.687Z,-2.20
2023-03-06T06:49:33.179Z,-2.09
2023-03-06T06:51:39.796Z,-1.82
2023-03-06T06:53:42.857Z,-1.60
2023-03-06T06:55:44.853Z,-1.43
2023-03-06T06:57:46.998Z,-1.53
2023-03-06T06:59:50.650Z,-1.76
2023-03-06T07:01:54.720Z,-2.11
2023-03-06T07:03:56.991Z,-2.21
2023-03-06T07:05:58.974Z,-2.29
2023-03-06T07:08:01.080Z,-2.20
2023-03-06T07:10:11.027Z,-2.18
2023-03-06T07:12:18.903Z,-2.12
2023-03-06T07:13:24.373Z,-2.11
2023-03-06T07:13:38.678Z,-2.14
2023-03-06T07:13:52.714Z,-2.14
2023-03-06T07:14:06.690Z,-2.18
2023-03-06T07:14:20.588Z,-2.24
2023-03-06T07:14:34.675Z,-2.24
2023-03-06T07:14:48.713Z,-2.18
2023-03-06T07:15:03.173Z,-2.16
2023-03-06T07:17:40.625Z,-2.01
2023-03-06T07:19:42.813Z,-2.01
2023-03-06T07:21:45.810Z,-2.08
2023-03-06T07:23:47.945Z,-2.17
2023-03-06T07:25:50.289Z,-2.19
2023-03-06T07:27:55.863Z,-2.23
2023-03-06T07:29:57.993Z,-2.32
2023-03-06T07:32:00.237Z,-1.99
2023-03-06T07:34:04.808Z,-1.28
2023-03-06T07:36:12.726Z,-0.58
2023-03-06T07:38:14.903Z,-0.08
2023-03-06T07:40:17.476Z,-0.14
2023-03-06T07:42:19.572Z,0.07
2023-03-06T07:44:21.689Z,0.23
2023-03-06T07:46:25.788Z,0.28
2023-03-06T07:48:31.806Z,0.33
2023-03-06T07:50:35.280Z,-0.09
2023-03-06T07:52:37.239Z,-0.08
2023-03-06T07:54:39.179Z,-0.08
2023-03-06T07:55:12.670Z,-0.02
2023-03-06T07:55:24.616Z,-0.04
2023-03-06T07:55:39.526Z,-0.01
2023-03-06T07:55:51.384Z,0.10
2023-03-06T07:56:09.403Z,0.16
2023-03-06T07:56:21.379Z,0.22
2023-03-06T07:56:35.234Z,0.31
2023-03-06T07:56:50.952Z,0.50
2023-03-06T07:57:02.810Z,0.54
2023-03-06T07:57:15.153Z,0.60
2023-03-06T07:57:27.345Z,0.74
2023-03-06T07:57:39.722Z,0.72
2023-03-06T07:57:51.839Z,0.69
2023-03-06T07:58:03.745Z,0.68
2023-03-06T07:58:15.605Z,0.72
2023-03-06T07:58:27.750Z,0.77
2023-03-06T07:58:42.958Z,0.81
2023-03-06T07:58:56.109Z,0.81
2023-03-06T07:59:11.061Z,0.85
2023-03-06T07:59:22.992Z,0.87
2023-03-06T07:59:34.931Z,0.90
2023-03-06T07:59:46.896Z,0.83
2023-03-06T07:59:58.833Z,0.79
2023-03-06T08:00:15.071Z,0.83
2023-03-06T08:00:27.019Z,0.89
2023-03-06T08:00:38.925Z,0.87
2023-03-06T08:00:50.810Z,0.89
2023-03-06T08:01:07.181Z,0.71
2023-03-06T08:01:28.526Z,0.70
2023-03-06T08:01:40.486Z,0.62
2023-03-06T08:01:55.257Z,0.58
2023-03-06T08:02:07.633Z,0.52
2023-03-06T08:02:19.498Z,0.45
2023-03-06T08:02:31.541Z,0.49
2023-03-06T08:02:44.174Z,0.54
2023-03-06T08:02:56.356Z,0.61
2023-03-06T08:03:11.428Z,0.54
2023-03-06T08:03:26.388Z,0.58
2023-03-06T08:03:38.562Z,0.56
2023-03-06T08:03:51.076Z,0.50
2023-03-06T08:04:03.095Z,0.53
2023-03-06T08:04:15.051Z,0.45
2023-03-06T08:04:28.987Z,0.35
2023-03-06T08:04:40.980Z,0.34
2023-03-06T08:04:54.554Z,0.41
2023-03-06T08:05:08.258Z,0.41
2023-03-06T08:05:20.274Z,0.33
2023-03-06T08:05:32.159Z,0.39
2023-03-06T08:05:45.076Z,0.41
2023-03-06T08:06:06.120Z,0.41
2023-03-06T08:06:23.605Z,0.29
2023-03-06T08:06:35.597Z,0.30
2023-03-06T08:06:47.484Z,0.28
2023-03-06T08:07:00.197Z,0.28
2023-03-06T08:07:13.369Z,0.26
2023-03-06T08:07:25.228Z,0.28
2023-03-06T08:07:37.117Z,0.28
2023-03-06T08:07:48.967Z,0.28
2023-03-06T08:08:00.869Z,0.28
2023-03-06T08:08:12.816Z,0.29
2023-03-06T08:08:24.706Z,0.28
2023-03-06T08:08:39.534Z,0.30
2023-03-06T08:08:53.269Z,0.30
2023-03-06T08:09:05.109Z,0.33
2023-03-06T08:09:17.004Z,0.33
2023-03-06T08:09:28.859Z,0.32
2023-03-06T08:09:40.673Z,0.30
2023-03-06T08:09:52.599Z,0.28
2023-03-06T08:10:05.304Z,0.20
2023-03-06T08:10:17.590Z,0.18
2023-03-06T08:12:27.975Z,0.00
2023-03-06T08:14:29.891Z,0.01
2023-03-06T08:16:32.141Z,-0.06
2023-03-06T08:18:35.705Z,-0.02
2023-03-06T08:20:37.665Z,0.15
2023-03-06T08:22:39.699Z,0.42
2023-03-06T08:24:41.757Z,0.60
2023-03-06T08:26:43.862Z,0.71
2023-03-06T08:28:46.720Z,0.92
2023-03-06T08:30:48.593Z,1.17
2023-03-06T08:32:50.666Z,1.28
2023-03-06T08:33:15.742Z,1.17
2023-03-06T08:33:23.183Z,1.17
2023-03-06T08:33:30.028Z,1.19
2023-03-06T08:33:37.058Z,1.13
2023-03-06T08:33:43.989Z,1.12
2023-03-06T08:33:51.067Z,1.11
2023-03-06T08:34:00.060Z,1.06
2023-03-06T08:34:10.351Z,1.07
2023-03-06T08:34:20.235Z,1.06
2023-03-06T08:34:27.283Z,1.08
2023-03-06T08:34:34.252Z,1.07
2023-03-06T08:34:42.796Z,1.08
2023-03-06T08:34:49.662Z,1.15
2023-03-06T08:34:56.541Z,1.16
2023-03-06T08:35:04.726Z,1.17
2023-03-06T08:35:11.718Z,1.21
2023-03-06T08:35:18.864Z,1.18
2023-03-06T08:37:26.462Z,1.15
2023-03-06T08:39:28.378Z,1.04
2023-03-06T08:41:30.929Z,0.86
2023-03-06T08:43:32.931Z,1.03
2023-03-06T08:45:36.226Z,1.01
2023-03-06T08:47:38.213Z,0.98
2023-03-06T08:49:40.557Z,0.98
2023-03-06T08:51:43.251Z,0.91
2023-03-06T08:53:45.531Z,0.71
2023-03-06T08:57:04.327Z,0.78
2023-03-06T08:59:06.810Z,0.76
2023-03-06T09:01:13.094Z,0.67
2023-03-06T09:03:15.040Z,0.70
2023-03-06T09:05:16.869Z,0.80
2023-03-06T09:07:18.631Z,0.76
2023-03-06T09:09:20.381Z,0.73
2023-03-06T09:11:23.730Z,0.83
2023-03-06T09:13:25.445Z,0.80
2023-03-06T09:15:27.241Z,0.80
2023-03-06T09:17:30.104Z,0.72
2023-03-06T09:19:31.994Z,0.57
2023-03-06T09:21:33.819Z,0.51
2023-03-06T09:23:35.776Z,0.49
2023-03-06T09:25:37.593Z,0.45
2023-03-06T09:27:39.555Z,0.46
2023-03-06T09:29:41.374Z,0.42
2023-03-06T09:31:43.320Z,0.54
2023-03-06T09:33:45.130Z,0.52
2023-03-06T09:35:52.153Z,0.49
2023-03-06T09:37:54.023Z,0.52
2023-03-06T09:39:55.856Z,0.53
2023-03-06T09:41:58.665Z,0.72
2023-03-06T09:44:06.303Z,0.74
2023-03-06T09:46:30.173Z,0.65
2023-03-06T09:48:45.205Z,0.72
2023-03-06T09:50:54.068Z,0.80
2023-03-06T09:53:03.433Z,0.77
2023-03-06T09:55:05.328Z,0.85
2023-03-06T09:57:14.252Z,0.90
2023-03-06T09:59:26.143Z,0.90
2023-03-06T10:01:35.182Z,0.78
2023-03-06T10:03:42.511Z,0.66
2023-03-06T10:06:03.578Z,0.70
2023-03-06T10:08:24.432Z,0.63
2023-03-06T10:10:28.626Z,0.68
2023-03-06T10:12:38.288Z,0.74
2023-03-06T10:15:06.001Z,0.63
2023-03-06T10:17:14.817Z,0.63
2023-03-06T10:19:18.153Z,0.69
2023-03-06T10:21:38.935Z,0.64
2023-03-06T10:23:53.394Z,0.62
2023-03-06T10:25:23.866Z,0.51
2023-03-06T10:25:46.138Z,0.61
2023-03-06T10:26:03.652Z,0.64
2023-03-06T10:26:22.913Z,0.58
2023-03-06T10:26:52.706Z,0.54
2023-03-06T10:27:31.820Z,0.46
2023-03-06T10:27:49.501Z,0.41
2023-03-06T10:28:28.069Z,0.45
2023-03-06T10:28:47.176Z,0.43
2023-03-06T10:29:11.035Z,0.47
2023-03-06T10:30:02.267Z,0.33
2023-03-06T10:30:20.369Z,-0.15
2023-03-06T10:30:47.180Z,-0.26
2023-03-06T10:31:17.086Z,-0.08
2023-03-06T10:31:34.744Z,0.00
2023-03-06T10:31:58.556Z,0.11
2023-03-06T10:32:39.495Z,0.21
2023-03-06T10:33:15.934Z,0.22
2023-03-06T10:34:06.720Z,0.35
2023-03-06T10:34:28.858Z,0.33
2023-03-06T10:34:43.697Z,0.34
2023-03-06T10:35:00.679Z,0.32
2023-03-06T10:35:45.080Z,0.33
2023-03-06T10:35:59.259Z,0.46
2023-03-06T10:36:16.379Z,0.48
2023-03-06T10:36:30.392Z,0.46
2023-03-06T10:36:44.297Z,0.42
2023-03-06T10:37:05.471Z,0.37
2023-03-06T10:37:21.768Z,0.37
2023-03-06T10:37:35.740Z,0.37
2023-03-06T10:37:49.820Z,0.30
2023-03-06T10:38:25.691Z,0.32
2023-03-06T10:38:40.691Z,0.32
2023-03-06T10:38:56.861Z,0.32
2023-03-06T10:39:17.989Z,0.34
2023-03-06T10:39:32.114Z,0.38
2023-03-06T10:39:46.971Z,0.42
2023-03-06T10:40:18.568Z,0.50
2023-03-06T10:40:43.591Z,0.49
2023-03-06T10:41:17.194Z,0.41
2023-03-06T10:41:35.978Z,0.32
2023-03-06T10:41:50.376Z,0.33
2023-03-06T10:42:04.264Z,0.31
2023-03-06T10:42:18.216Z,0.29
2023-03-06T10:42:32.210Z,0.32
2023-03-06T10:42:46.121Z,0.34
2023-03-06T10:43:11.202Z,0.35
2023-03-06T10:43:26.049Z,0.37
2023-03-06T10:43:45.186Z,0.38
2023-03-06T10:44:05.262Z,0.40
2023-03-06T10:44:21.257Z,0.40
2023-03-06T10:44:35.127Z,0.38
2023-03-06T10:44:48.981Z,0.39
2023-03-06T10:45:16.739Z,0.37
2023-03-06T10:45:40.530Z,0.45
2023-03-06T10:46:01.753Z,0.44
2023-03-06T10:46:28.188Z,0.39
2023-03-06T10:46:47.697Z,0.39
2023-03-06T10:47:27.716Z,0.35
2023-03-06T10:47:42.450Z,0.35
2023-03-06T10:48:15.414Z,0.35
2023-03-06T10:48:30.912Z,0.31
2023-03-06T10:48:58.539Z,0.28
2023-03-06T10:49:36.060Z,0.34
2023-03-06T10:50:08.416Z,0.27
2023-03-06T10:50:30.788Z,0.31
2023-03-06T10:50:44.661Z,0.24
2023-03-06T10:51:20.184Z,0.31
2023-03-06T10:51:37.031Z,0.36
2023-03-06T10:52:15.436Z,0.39
2023-03-06T10:52:32.409Z,0.35
2023-03-06T10:53:00.512Z,0.30
2023-03-06T10:53:24.092Z,0.29
2023-03-06T10:53:53.450Z,0.30
2023-03-06T10:54:13.154Z,0.28
2023-03-06T10:54:28.389Z,0.22
2023-03-06T10:54:44.466Z,0.29
2023-03-06T10:55:25.009Z,0.28
2023-03-06T10:55:39.480Z,0.29
2023-03-06T10:57:48.010Z,0.25
2023-03-06T11:00:05.700Z,0.22
2023-03-06T11:02:41.336Z,0.28
2023-03-06T11:04:51.394Z,0.13
2023-03-06T11:07:18.991Z,0.05
2023-03-06T11:09:26.206Z,0.09
2023-03-06T11:11:37.235Z,0.02
2023-03-06T11:13:43.329Z,-0.02
2023-03-06T11:16:08.169Z,-0.13
2023-03-06T11:18:11.153Z,-0.06
2023-03-06T11:20:51.862Z,-0.17
2023-03-06T11:23:16.502Z,-0.21
2023-03-06T11:25:22.297Z,-0.24
2023-03-06T11:27:35.047Z,-0.25
2023-03-06T11:29:43.370Z,-0.13
2023-03-06T11:32:00.219Z,-0.11
2023-03-06T11:34:38.119Z,-0.02
2023-03-06T11:37:06.541Z,-0.09
2023-03-06T11:39:41.721Z,-0.02
2023-03-06T11:42:28.328Z,-0.12
2023-03-06T11:44:53.035Z,-0.02
2023-03-06T11:47:18.637Z,0.02
2023-03-06T11:49:43.549Z,-0.11
2023-03-06T11:51:53.334Z,-0.17
2023-03-06T11:54:00.474Z,-0.11
2023-03-06T11:56:26.237Z,-0.28
2023-03-06T11:58:58.902Z,-0.13
2023-03-06T12:01:10.842Z,-0.25
2023-03-06T12:03:46.268Z,-0.34
2023-03-06T12:06:10.508Z,-0.33
2023-03-06T12:08:25.629Z,-0.39
2023-03-06T12:10:51.747Z,-0.49
2023-03-06T12:13:18.050Z,-0.47
2023-03-06T12:15:46.892Z,-0.55
2023-03-06T12:18:30.964Z,-0.59
2023-03-06T12:21:11.335Z,-0.63
2023-03-06T12:23:50.456Z,-0.60
2023-03-06T12:26:27.354Z,-0.62
2023-03-06T12:28:42.161Z,-0.62
2023-03-06T12:31:06.900Z,-0.60
2023-03-06T12:33:38.341Z,-0.63
2023-03-06T12:36:16.607Z,-0.58
2023-03-06T12:38:52.369Z,-0.67
2023-03-06T12:41:07.448Z,-0.58
2023-03-06T12:43:27.560Z,-0.55
2023-03-06T12:45:37.286Z,-0.57
2023-03-06T12:47:44.903Z,-0.59
2023-03-06T12:49:53.497Z,-0.52
2023-03-06T12:51:57.210Z,-0.51
2023-03-06T12:54:02.396Z,-0.55
2023-03-06T12:56:05.164Z,-0.55
2023-03-06T12:58:30.838Z,-0.62
2023-03-06T13:01:03.610Z,-0.72
2023-03-06T13:03:46.593Z,-0.60
2023-03-06T13:06:16.252Z,-0.48
2023-03-06T13:08:59.010Z,-0.49
2023-03-06T13:11:39.722Z,-0.60
2023-03-06T13:13:49.148Z,-0.53
2023-03-06T13:16:09.845Z,-0.56
2023-03-06T13:18:34.667Z,-0.60
2023-03-06T13:20:44.407Z,-0.53
2023-03-06T13:22:47.550Z,-0.60
2023-03-06T13:25:22.187Z,-0.64
2023-03-06T13:27:46.301Z,-0.70
2023-03-06T13:30:05.314Z,-0.73
2023-03-06T13:32:28.124Z,-0.54
2023-03-06T13:34:49.459Z,-0.60
2023-03-06T13:36:53.669Z,-0.62
2023-03-06T13:38:57.880Z,-0.64
2023-03-06T13:41:25.907Z,-0.64
2023-03-06T13:43:40.663Z,-0.54
2023-03-06T13:46:35.172Z,-0.59
2023-03-06T13:48:45.163Z,-0.59
2023-03-06T13:50:57.903Z,-0.56
2023-03-06T13:53:27.418Z,-0.50
2023-03-06T13:55:48.675Z,-0.50
2023-03-06T13:58:22.765Z,-0.51
2023-03-06T14:01:04.436Z,-0.45
2023-03-06T14:03:43.373Z,-0.50
2023-03-06T14:05:52.297Z,-0.48
2023-03-06T14:08:20.008Z,-0.48
2023-03-06T14:10:26.966Z,-0.50
2023-03-06T14:12:42.616Z,-0.46
2023-03-06T14:15:06.028Z,-0.45
2023-03-06T14:17:18.989Z,-0.30
2023-03-06T14:19:21.231Z,-0.38
2023-03-06T14:21:56.058Z,-0.31
2023-03-06T14:24:06.067Z,-0.27
2023-03-06T14:26:27.065Z,-0.26
2023-03-06T14:29:04.564Z,-0.12
2023-03-06T14:31:07.505Z,-0.23
2023-03-06T14:33:11.697Z,-0.25
2023-03-06T14:35:32.411Z,-0.28
2023-03-06T14:37:37.727Z,-0.33
2023-03-06T14:39:46.941Z,-0.27
2023-03-06T14:41:49.488Z,-0.29
2023-03-06T14:43:52.844Z,-0.32
2023-03-06T14:46:03.397Z,-0.25
2023-03-06T14:48:15.668Z,-0.16
2023-03-06T14:50:34.406Z,-0.16
2023-03-06T14:52:43.574Z,-0.17
2023-03-06T14:54:59.019Z,-0.01
2023-03-06T14:57:06.363Z,-0.05
2023-03-06T14:59:16.822Z,-0.03
2023-03-06T15:01:40.771Z,0.10
2023-03-06T15:03:55.178Z,0.25
2023-03-06T15:06:01.423Z,0.18
2023-03-06T15:08:17.957Z,0.14
2023-03-06T15:10:26.273Z,0.08
2023-03-06T15:12:38.918Z,0.28
2023-03-06T15:14:48.082Z,0.21
2023-03-06T15:16:50.125Z,0.14
2023-03-06T15:19:04.548Z,0.15
2023-03-06T15:21:20.856Z,0.11
2023-03-06T15:23:45.779Z,0.08
2023-03-06T15:26:03.952Z,0.17
2023-03-06T15:28:30.890Z,0.15
2023-03-06T15:30:42.248Z,0.15
2023-03-06T15:32:52.225Z,0.30
2023-03-06T15:35:30.187Z,0.25
2023-03-06T15:37:34.665Z,0.11
2023-03-06T15:39:46.910Z,0.18
2023-03-06T15:42:18.313Z,0.18
2023-03-06T15:44:27.072Z,0.17
2023-03-06T15:46:41.854Z,0.16
2023-03-06T15:49:03.246Z,0.21
2023-03-06T15:51:07.057Z,0.13
2023-03-06T15:53:09.243Z,0.05
2023-03-06T15:55:24.241Z,0.11
2023-03-06T15:57:53.247Z,0.03
2023-03-06T16:00:00.391Z,0.28
2023-03-06T16:02:15.764Z,0.04
2023-03-06T16:04:20.184Z,0.08
2023-03-06T16:06:32.092Z,0.28
2023-03-06T16:08:34.360Z,0.10
2023-03-06T16:10:40.901Z,0.01
2023-03-06T16:12:51.900Z,-0.02
2023-03-06T16:14:57.377Z,0.05
2023-03-06T16:17:04.687Z,-0.03
2023-03-06T16:19:25.244Z,0.02
2023-03-06T16:21:29.183Z,0.02
2023-03-06T16:23:39.662Z,0.03
2023-03-06T16:25:49.371Z,0.05
2023-03-06T16:28:16.152Z,0.08
2023-03-06T16:30:20.183Z,-0.08
2023-03-06T16:32:28.796Z,0.01
2023-03-06T16:34:34.667Z,0.04
2023-03-06T16:36:41.685Z,-0.01
2023-03-06T16:38:45.037Z,0.02
2023-03-06T16:40:50.116Z,-0.01
2023-03-06T16:42:57.894Z,0.24
2023-03-06T16:45:03.530Z,0.20
2023-03-06T16:47:07.113Z,0.01
2023-03-06T16:49:21.081Z,0.16
2023-03-06T16:51:24.149Z,0.19
2023-03-06T16:53:26.402Z,0.12
2023-03-06T16:55:29.492Z,0.00
2023-03-06T16:57:35.967Z,0.17
2023-03-06T16:59:39.522Z,0.20
2023-03-06T17:01:51.798Z,0.17
2023-03-06T17:03:57.401Z,0.16
2023-03-06T17:05:59.806Z,0.05
2023-03-06T17:08:05.087Z,0.16
2023-03-06T17:10:10.900Z,0.10
2023-03-06T17:12:13.074Z,0.14
2023-03-06T17:14:33.730Z,0.09
2023-03-06T17:16:40.549Z,0.14
2023-03-06T17:18:45.459Z,0.16
2023-03-06T17:20:52.595Z,0.13
2023-03-06T17:22:55.946Z,0.07
2023-03-06T17:24:58.282Z,0.03
2023-03-06T17:27:01.629Z,0.24
2023-03-06T17:29:07.024Z,0.16
2023-03-06T17:31:18.007Z,0.19
2023-03-06T17:33:20.743Z,0.22
2023-03-06T17:35:27.346Z,0.16
2023-03-06T17:37:33.185Z,0.10
2023-03-06T17:39:39.231Z,0.26
2023-03-06T17:41:42.160Z,0.27
2023-03-06T17:43:48.421Z,0.16
2023-03-06T17:45:50.785Z,0.31
2023-03-06T17:47:56.298Z,0.21
2023-03-06T17:50:00.810Z,0.14
2023-03-06T17:52:09.306Z,0.17
2023-03-06T17:54:19.109Z,0.23
2023-03-06T17:56:22.188Z,0.10
2023-03-06T17:58:28.156Z,0.09
2023-03-06T18:00:31.147Z,0.14
2023-03-06T18:02:40.867Z,0.06
2023-03-06T18:04:51.727Z,0.16
2023-03-06T18:07:00.996Z,0.14
2023-03-06T18:09:07.239Z,0.00
2023-03-06T18:11:32.071Z,0.06
2023-03-06T18:13:44.323Z,0.18
2023-03-06T18:15:48.669Z,0.30
2023-03-06T18:18:09.355Z,0.29
2023-03-06T18:20:20.495Z,0.16
2023-03-06T18:22:35.302Z,0.26
2023-03-06T18:24:50.392Z,0.09
2023-03-06T18:26:53.559Z,0.04
2023-03-06T18:29:06.561Z,-0.03
2023-03-06T18:31:40.974Z,0.03
2023-03-06T18:33:45.292Z,-0.04
2023-03-06T18:35:48.297Z,-0.05
2023-03-06T18:37:52.864Z,-0.01
2023-03-06T18:39:55.836Z,0.00
2023-03-06T18:41:58.866Z,-0.13
2023-03-06T18:44:02.669Z,-0.09
2023-03-06T18:46:06.482Z,-0.09
2023-03-06T18:48:09.756Z,-0.20
2023-03-06T18:50:18.141Z,-0.16
2023-03-06T18:52:24.336Z,-0.15
2023-03-06T18:54:30.415Z,-0.22
2023-03-06T18:56:34.664Z,-0.23
2023-03-06T18:58:37.648Z,-0.34
2023-03-06T19:00:47.268Z,-0.30
2023-03-06T19:02:50.591Z,-0.38
2023-03-06T19:04:56.893Z,-0.34
2023-03-06T19:06:59.972Z,-0.39
2023-03-06T19:09:04.855Z,-0.46
2023-03-06T19:11:14.481Z,-0.36
2023-03-06T19:13:22.998Z,-0.38
2023-03-06T19:15:26.115Z,-0.54
2023-03-06T19:17:29.290Z,-0.43
2023-03-06T19:19:36.140Z,-0.53
2023-03-06T19:21:39.358Z,-0.43
2023-03-06T19:23:44.051Z,-0.46
2023-03-06T19:25:58.781Z,-0.27
2023-03-06T19:28:04.699Z,-0.30
2023-03-06T19:30:08.450Z,-0.25
2023-03-06T19:32:13.864Z,-0.15
2023-03-06T19:34:18.260Z,-0.41
2023-03-06T19:36:24.470Z,-0.33
2023-03-06T19:38:28.771Z,-0.35
2023-03-06T19:40:31.710Z,-0.27
2023-03-06T19:42:36.214Z,-0.34
2023-03-06T19:44:40.357Z,-0.39
2023-03-06T19:46:44.189Z,-0.23
2023-03-06T19:48:49.199Z,-0.25
2023-03-06T19:50:51.801Z,-0.32
2023-03-06T19:52:54.175Z,-0.26
2023-03-06T19:54:58.236Z,-0.31
2023-03-06T19:57:01.387Z,-0.39
2023-03-06T19:59:10.748Z,-0.36
2023-03-06T20:01:21.276Z,-0.27
2023-03-06T20:03:24.277Z,-0.38
2023-03-06T20:05:28.606Z,-0.44
2023-03-06T20:07:36.108Z,-0.51
2023-03-06T20:09:42.920Z,-0.44
2023-03-06T20:11:47.064Z,-0.51
2023-03-06T20:14:00.717Z,-0.46
2023-03-06T20:16:04.822Z,-0.44
2023-03-06T20:18:07.406Z,-0.52
2023-03-06T20:20:11.419Z,-0.50
2023-03-06T20:22:14.853Z,-0.51
2023-03-06T20:24:19.524Z,-0.44
2023-03-06T20:26:22.902Z,-0.52
2023-03-06T20:28:26.939Z,-0.46
2023-03-06T20:30:37.558Z,-0.55
2023-03-06T20:32:40.648Z,-0.44
2023-03-06T20:34:44.816Z,-0.57
2023-03-06T20:36:47.891Z,-0.60
2023-03-06T20:38:56.065Z,-0.63
2023-03-06T20:43:16.360Z,-0.52
2023-03-06T20:45:18.765Z,-0.76
2023-03-06T20:47:25.081Z,-0.68
2023-03-06T20:49:29.137Z,-0.64
2023-03-06T20:51:36.802Z,-0.79
2023-03-06T20:53:39.520Z,-0.66
2023-03-06T20:55:43.573Z,-0.70
2023-03-06T20:57:54.540Z,-0.71
2023-03-06T20:59:56.845Z,-0.70
2023-03-06T21:01:59.554Z,-0.73
2023-03-06T21:04:06.653Z,-0.79
2023-03-06T21:06:09.593Z,-0.77
2023-03-06T21:08:13.182Z,-0.81
2023-03-06T21:10:15.732Z,-0.76
2023-03-06T21:12:18.535Z,-0.63
2023-03-06T21:14:21.658Z,-0.66
2023-03-06T21:16:25.900Z,-0.72
2023-03-06T21:18:28.395Z,-0.79
2023-03-06T21:20:30.923Z,-0.88
2023-03-06T21:22:33.380Z,-0.78
2023-03-06T21:24:36.223Z,-0.73
2023-03-06T21:26:38.971Z,-0.79
2023-03-06T21:28:43.527Z,-0.75
2023-03-06T21:30:46.659Z,-0.86
2023-03-06T21:32:50.667Z,-0.87
2023-03-06T21:34:53.487Z,-0.75
2023-03-06T21:36:55.544Z,-0.94
2023-03-06T21:38:58.723Z,-0.91
2023-03-06T21:41:14.561Z,-0.76
2023-03-06T21:43:17.712Z,-0.88
2023-03-06T21:45:22.210Z,-0.88
2023-03-06T21:47:24.319Z,-0.90
2023-03-06T21:49:27.529Z,-0.84
2023-03-06T21:51:29.442Z,-0.90
2023-03-06T21:53:31.480Z,-0.89
2023-03-06T21:55:33.447Z,-0.80
2023-03-06T21:57:35.577Z,-0.92
2023-03-06T21:59:37.944Z,-0.95
2023-03-06T22:01:40.057Z,-0.94
2023-03-06T22:03:41.994Z,-0.94
2023-03-06T22:05:45.018Z,-0.90
2023-03-06T22:07:47.075Z,-0.86
2023-03-06T22:09:53.586Z,-0.83
2023-03-06T22:11:55.574Z,-0.77
2023-03-06T22:13:58.302Z,-0.82
2023-03-06T22:16:00.727Z,-0.85
2023-03-06T22:18:02.693Z,-0.97
2023-03-06T22:20:04.989Z,-0.92
2023-03-06T22:22:07.598Z,-0.97
2023-03-06T22:24:10.721Z,-0.90
2023-03-06T22:26:14.633Z,-0.98
2023-03-06T22:28:18.669Z,-0.89
2023-03-06T22:30:22.704Z,-0.90
2023-03-06T22:32:25.836Z,-0.96
2023-03-06T22:34:36.954Z,-0.94
2023-03-06T22:36:39.006Z,-0.86
2023-03-06T22:38:44.692Z,-0.91
2023-03-06T22:41:00.157Z,-0.86